createdAt,value
2019-02-17T00:00:38.557Z,20.47
2019-02-17T00:03:07.674Z,19.37
2019-02-17T00:05:36.469Z,19.13
2019-02-17T00:08:06.610Z,19.20
2019-02-17T00:10:35.744Z,20.27
2019-02-17T00:13:04.746Z,20.43
2019-02-17T00:15:33.698Z,18.67
2019-02-17T00:18:04.729Z,19.60
2019-02-17T00:20:33.632Z,19.57
2019-02-17T00:23:02.538Z,19.13
2019-02-17T00:25:31.318Z,19.77
2019-02-17T00:28:01.657Z,19.33
2019-02-17T00:30:30.738Z,20.50
2019-02-17T00:33:00.836Z,19.90
2019-02-17T00:35:31.103Z,19.93
2019-02-17T00:37:59.956Z,18.90
2019-02-17T00:40:29.778Z,20.80
2019-02-17T00:42:59.215Z,21.10
2019-02-17T00:45:28.262Z,19.87
2019-02-17T00:47:57.525Z,19.73
2019-02-17T00:50:26.558Z,19.80
2019-02-17T00:52:55.410Z,19.40
2019-02-17T00:55:24.419Z,19.23
2019-02-17T00:57:53.208Z,19.73
2019-02-17T01:00:22.108Z,20.37
2019-02-17T01:02:51.086Z,19.83
2019-02-17T01:05:19.997Z,18.77
2019-02-17T01:07:48.883Z,18.67
2019-02-17T01:10:18.252Z,19.17
2019-02-17T01:12:47.145Z,19.17
2019-02-17T01:15:15.983Z,20.70
2019-02-17T01:17:44.802Z,19.70
2019-02-17T01:20:13.786Z,20.23
2019-02-17T01:22:43.041Z,19.83
2019-02-17T01:25:11.973Z,19.67
2019-02-17T01:27:40.928Z,19.27
2019-02-17T01:30:11.409Z,20.33
2019-02-17T01:32:40.267Z,19.67
2019-02-17T01:35:09.095Z,19.27
2019-02-17T01:37:38.062Z,19.00
2019-02-17T01:40:07.200Z,19.73
2019-02-17T01:42:36.286Z,18.63
2019-02-17T01:45:05.599Z,20.73
2019-02-17T01:47:34.369Z,19.00
2019-02-17T01:50:03.348Z,18.73
2019-02-17T01:52:32.456Z,18.87
2019-02-17T01:55:01.272Z,19.67
2019-02-17T01:57:30.117Z,19.13
2019-02-17T01:59:59.011Z,19.60
2019-02-17T02:02:27.787Z,19.80
2019-02-17T02:04:56.743Z,20.30
2019-02-17T02:07:25.688Z,21.60
2019-02-17T02:09:54.783Z,22.10
2019-02-17T02:12:23.737Z,19.63
2019-02-17T02:14:52.791Z,21.63
2019-02-17T02:17:22.255Z,19.90
2019-02-17T02:19:51.105Z,20.57
2019-02-17T02:22:20.094Z,19.37
2019-02-17T02:24:50.677Z,19.97
2019-02-17T02:27:19.820Z,18.50
2019-02-17T02:30:06.472Z,20.23
2019-02-17T02:32:35.253Z,20.77
2019-02-17T02:35:04.268Z,19.70
2019-02-17T02:37:33.285Z,19.53
2019-02-17T02:40:02.570Z,19.53
2019-02-17T02:42:31.556Z,18.47
2019-02-17T02:45:00.527Z,19.47
2019-02-17T02:47:29.396Z,18.57
2019-02-17T02:49:58.167Z,18.87
2019-02-17T02:52:27.026Z,18.70
2019-02-17T02:54:55.949Z,18.20
2019-02-17T02:57:24.907Z,19.67
2019-02-17T02:59:53.716Z,18.37
2019-02-17T03:02:22.851Z,19.60
2019-02-17T03:04:51.639Z,19.00
2019-02-17T03:07:21.910Z,17.97
2019-02-17T03:09:51.360Z,18.70
2019-02-17T03:12:20.195Z,17.60
2019-02-17T03:14:49.654Z,16.97
2019-02-17T03:17:18.455Z,17.37
2019-02-17T03:19:47.274Z,17.73
2019-02-17T03:22:16.237Z,18.13
2019-02-17T03:24:45.131Z,17.53
2019-02-17T03:27:13.955Z,18.40
2019-02-17T03:29:42.949Z,16.33
2019-02-17T03:32:11.819Z,16.60
2019-02-17T03:34:40.966Z,17.60
2019-02-17T03:37:09.812Z,17.77
2019-02-17T03:39:38.618Z,16.73
2019-02-17T03:42:07.424Z,16.80
2019-02-17T03:44:36.482Z,16.03
2019-02-17T03:47:05.336Z,16.23
2019-02-17T03:49:34.193Z,16.20
2019-02-17T03:52:02.986Z,17.17
2019-02-17T03:54:31.915Z,16.50
2019-02-17T03:57:00.927Z,15.90
2019-02-17T03:59:29.857Z,17.00
2019-02-17T04:01:58.668Z,15.90
2019-02-17T04:04:27.719Z,16.70
2019-02-17T04:06:56.514Z,16.10
2019-02-17T04:09:25.339Z,16.77
2019-02-17T04:11:54.137Z,16.37
2019-02-17T04:14:23.046Z,15.23
2019-02-17T04:16:52.956Z,15.77
2019-02-17T04:19:21.908Z,16.70
2019-02-17T04:21:51.182Z,15.68
2019-02-17T04:24:20.025Z,15.47
2019-02-17T04:26:49.405Z,17.13
2019-02-17T04:29:18.246Z,15.50
2019-02-17T04:31:47.132Z,16.37
2019-02-17T04:34:16.198Z,14.77
2019-02-17T04:36:45.021Z,15.93
2019-02-17T04:39:13.928Z,17.00
2019-02-17T04:41:42.724Z,15.90
2019-02-17T04:44:11.787Z,15.90
2019-02-17T04:46:50.564Z,15.13
2019-02-17T04:49:19.614Z,15.20
2019-02-17T04:51:48.728Z,15.23
2019-02-17T04:54:17.564Z,15.80
2019-02-17T04:56:47.173Z,15.40
2019-02-17T04:59:16.423Z,16.07
2019-02-17T05:01:45.316Z,15.60
2019-02-17T05:04:14.961Z,16.67
2019-02-17T05:06:43.845Z,15.57
2019-02-17T05:09:12.660Z,14.53
2019-02-17T05:11:41.842Z,15.07
2019-02-17T05:14:10.954Z,15.57
2019-02-17T05:16:39.947Z,15.93
2019-02-17T05:19:08.896Z,15.57
2019-02-17T05:21:37.789Z,15.47
2019-02-17T05:24:06.805Z,15.70
2019-02-17T05:26:36.024Z,14.70
2019-02-17T05:29:05.221Z,14.57
2019-02-17T05:31:34.242Z,15.63
2019-02-17T05:34:03.401Z,15.10
2019-02-17T05:36:32.376Z,15.27
2019-02-17T05:39:01.630Z,15.67
2019-02-17T05:41:30.391Z,15.23
2019-02-17T05:43:59.826Z,14.60
2019-02-17T05:46:28.645Z,15.07
2019-02-17T05:48:57.650Z,15.10
2019-02-17T05:51:26.590Z,14.80
2019-02-17T05:53:55.402Z,15.80
2019-02-17T05:56:24.446Z,14.77
2019-02-17T05:58:53.423Z,14.33
2019-02-17T06:01:22.285Z,14.63
2019-02-17T06:03:51.884Z,14.27
2019-02-17T06:06:20.840Z,13.83
2019-02-17T06:08:49.699Z,14.33
2019-02-17T06:11:18.981Z,14.00
2019-02-17T06:13:47.915Z,14.43
2019-02-17T06:16:17.619Z,14.97
2019-02-17T06:18:46.413Z,14.37
2019-02-17T06:21:15.323Z,13.87
2019-02-17T06:23:44.127Z,13.93
2019-02-17T06:26:13.065Z,13.03
2019-02-17T06:28:42.007Z,13.17
2019-02-17T06:31:14.469Z,13.27
2019-02-17T06:33:41.882Z,12.73
2019-02-17T06:36:10.732Z,13.57
2019-02-17T06:38:40.239Z,13.90
2019-02-17T06:41:09.189Z,12.97
2019-02-17T06:43:38.232Z,13.87
2019-02-17T06:46:07.771Z,13.37
2019-02-17T06:48:36.573Z,13.03
2019-02-17T06:51:05.500Z,12.83
2019-02-17T06:53:34.397Z,13.47
2019-02-17T06:56:23.958Z,12.77
2019-02-17T06:58:52.894Z,14.27
2019-02-17T07:01:24.618Z,15.33
2019-02-17T07:03:53.016Z,13.73
2019-02-17T07:06:30.982Z,13.53
2019-02-17T07:08:59.962Z,13.27
2019-02-17T07:11:29.049Z,13.87
2019-02-17T07:13:58.606Z,13.55
2019-02-17T07:16:27.501Z,14.10
2019-02-17T07:18:56.403Z,14.20
2019-02-17T07:21:25.279Z,13.90
2019-02-17T07:23:54.365Z,13.97
2019-02-17T07:26:23.487Z,13.87
2019-02-17T07:28:52.519Z,14.67
2019-02-17T07:31:22.635Z,14.70
2019-02-17T07:33:52.106Z,12.93
2019-02-17T07:36:22.110Z,14.13
2019-02-17T07:38:51.301Z,14.33
2019-02-17T07:41:20.252Z,14.53
2019-02-17T07:43:49.250Z,14.87
2019-02-17T07:46:18.145Z,14.83
2019-02-17T07:48:47.080Z,14.90
2019-02-17T07:51:15.963Z,14.93
2019-02-17T07:53:45.127Z,14.40
2019-02-17T07:56:14.036Z,16.20
2019-02-17T07:58:42.946Z,15.57
2019-02-17T08:01:11.826Z,13.77
2019-02-17T08:03:40.711Z,15.37
2019-02-17T08:06:10.978Z,16.57
2019-02-17T08:08:40.041Z,15.63
2019-02-17T08:11:08.913Z,14.33
2019-02-17T08:13:37.809Z,15.00
2019-02-17T08:16:06.954Z,15.13
2019-02-17T08:18:35.907Z,16.17
2019-02-17T08:21:04.891Z,16.43
2019-02-17T08:23:33.719Z,14.53
2019-02-17T08:26:02.562Z,15.00
2019-02-17T08:28:31.451Z,14.33
2019-02-17T08:31:00.301Z,15.00
2019-02-17T08:33:29.263Z,15.10
2019-02-17T08:35:58.144Z,14.73
2019-02-17T08:38:26.962Z,15.53
2019-02-17T08:40:56.070Z,15.50
2019-02-17T08:43:24.980Z,14.83
2019-02-17T08:45:53.895Z,14.20
2019-02-17T08:48:22.805Z,15.50
2019-02-17T08:50:51.862Z,14.80
2019-02-17T08:53:20.785Z,14.67
2019-02-17T08:55:50.166Z,14.63
2019-02-17T08:58:19.124Z,14.10
2019-02-17T09:00:48.020Z,15.23
2019-02-17T09:03:16.989Z,14.00
2019-02-17T09:05:47.184Z,14.27
2019-02-17T09:08:16.091Z,14.33
2019-02-17T09:10:45.226Z,13.80
2019-02-17T09:13:14.117Z,13.90
2019-02-17T09:15:43.019Z,14.67
2019-02-17T09:18:13.562Z,13.00
2019-02-17T09:20:42.420Z,13.80
2019-02-17T09:23:11.360Z,13.63
2019-02-17T09:25:40.351Z,13.47
2019-02-17T09:28:09.505Z,14.37
2019-02-17T09:30:38.675Z,14.40
2019-02-17T09:33:07.535Z,14.20
2019-02-17T09:35:36.380Z,14.13
2019-02-17T09:38:05.262Z,13.97
2019-02-17T09:40:34.283Z,14.23
2019-02-17T09:43:03.119Z,13.97
2019-02-17T09:45:31.946Z,12.70
2019-02-17T09:48:00.787Z,13.70
2019-02-17T09:50:29.976Z,14.23
2019-02-17T09:52:58.974Z,14.00
2019-02-17T09:55:28.436Z,13.97
2019-02-17T09:57:57.652Z,13.13
2019-02-17T10:00:26.537Z,14.13
2019-02-17T10:02:55.512Z,13.20
2019-02-17T10:05:24.372Z,14.37
2019-02-17T10:07:53.454Z,13.93
2019-02-17T10:10:22.297Z,12.83
2019-02-17T10:12:51.250Z,14.07
2019-02-17T10:15:20.378Z,12.90
2019-02-17T10:17:49.614Z,13.30
2019-02-17T10:20:18.671Z,13.73
2019-02-17T10:22:47.684Z,13.93
2019-02-17T10:25:16.866Z,13.37
2019-02-17T10:27:45.815Z,14.07
2019-02-17T10:30:14.641Z,8.50
2019-02-17T10:32:43.757Z,11.00
2019-02-17T10:35:14.179Z,9.43
2019-02-17T10:37:43.167Z,9.50
2019-02-17T10:40:12.540Z,13.40
2019-02-17T10:42:44.440Z,15.07
2019-02-17T10:45:13.454Z,14.27
2019-02-17T10:47:42.444Z,14.27
2019-02-17T10:50:11.746Z,14.70
2019-02-17T10:52:41.680Z,14.83
2019-02-17T10:55:16.853Z,13.93
2019-02-17T10:57:45.886Z,14.57
2019-02-17T11:00:15.458Z,14.00
2019-02-17T11:02:47.132Z,14.20
2019-02-17T11:05:15.466Z,14.07
2019-02-17T11:07:48.151Z,13.73
2019-02-17T11:10:17.874Z,14.63
2019-02-17T11:12:49.031Z,15.33
2019-02-17T11:15:18.328Z,14.37
2019-02-17T11:17:49.297Z,14.47
2019-02-17T11:20:18.982Z,14.20
2019-02-17T11:22:52.332Z,14.10
2019-02-17T11:25:23.538Z,13.40
2019-02-17T11:27:54.378Z,13.83
2019-02-17T11:30:23.373Z,14.73
2019-02-17T11:32:58.002Z,14.87
2019-02-17T11:35:24.842Z,15.03
2019-02-17T11:37:54.315Z,14.97
2019-02-17T11:40:23.627Z,15.53
2019-02-17T11:42:54.356Z,14.13
2019-02-17T11:45:24.864Z,14.20
2019-02-17T11:47:55.723Z,15.57
2019-02-17T11:50:25.646Z,13.30
2019-02-17T11:52:55.796Z,14.13
2019-02-17T11:55:25.705Z,14.13
2019-02-17T11:57:55.621Z,14.60
2019-02-17T12:00:24.946Z,14.03
2019-02-17T12:02:55.634Z,14.73
2019-02-17T12:05:25.351Z,14.40
2019-02-17T12:07:54.573Z,14.77
2019-02-17T12:10:24.815Z,13.83
2019-02-17T12:12:54.031Z,14.70
2019-02-17T12:15:23.307Z,14.90
2019-02-17T12:17:55.074Z,14.87
2019-02-17T12:20:39.592Z,14.73
2019-02-17T12:23:22.273Z,14.70
2019-02-17T12:25:55.974Z,14.17
2019-02-17T12:28:35.203Z,15.07
2019-02-17T12:31:07.401Z,13.60
2019-02-17T12:33:36.632Z,13.83
2019-02-17T12:36:06.866Z,14.17
2019-02-17T12:38:35.859Z,14.20
2019-02-17T12:41:06.051Z,14.13
2019-02-17T12:43:35.336Z,14.43
2019-02-17T12:46:04.875Z,13.50
2019-02-17T12:48:33.935Z,13.03
2019-02-17T12:51:03.024Z,13.77
2019-02-17T12:53:32.268Z,13.30
2019-02-17T12:56:01.487Z,13.27
2019-02-17T12:58:30.732Z,13.77
2019-02-17T13:00:59.656Z,14.17
2019-02-17T13:03:28.996Z,13.33
2019-02-17T13:05:58.489Z,14.20
2019-02-17T13:08:27.562Z,12.77
2019-02-17T13:10:56.661Z,15.07
2019-02-17T13:13:25.691Z,13.57
2019-02-17T13:15:55.577Z,13.60
2019-02-17T13:18:24.464Z,13.87
2019-02-17T13:20:53.587Z,12.43
2019-02-17T13:23:22.541Z,13.17
2019-02-17T13:25:51.414Z,13.10
2019-02-17T13:28:20.786Z,14.70
2019-02-17T13:30:49.833Z,17.30
2019-02-17T13:33:39.409Z,13.87
2019-02-17T13:36:08.611Z,13.17
2019-02-17T13:38:37.596Z,13.53
2019-02-17T13:41:06.442Z,13.33
2019-02-17T13:43:35.313Z,13.27
2019-02-17T13:46:04.828Z,13.47
2019-02-17T13:48:34.144Z,12.37
2019-02-17T13:51:03.204Z,12.67
2019-02-17T13:53:36.156Z,12.70
2019-02-17T13:56:05.037Z,12.30
2019-02-17T13:58:34.223Z,12.30
2019-02-17T14:01:03.195Z,11.40
2019-02-17T14:03:32.182Z,7.67
2019-02-17T14:06:01.304Z,11.00
2019-02-17T14:08:31.333Z,12.57
2019-02-17T14:11:00.453Z,11.87
2019-02-17T14:13:29.405Z,12.67
2019-02-17T14:15:58.433Z,12.67
2019-02-17T14:18:27.555Z,12.67
2019-02-17T14:20:56.683Z,13.13
2019-02-17T14:23:25.535Z,12.57
2019-02-17T14:25:54.536Z,12.20
2019-02-17T14:28:23.369Z,12.87
2019-02-17T14:30:52.327Z,12.60
2019-02-17T14:33:22.536Z,13.63
2019-02-17T14:35:51.788Z,13.03
2019-02-17T14:38:20.617Z,13.37
2019-02-17T14:40:49.749Z,12.50
2019-02-17T14:43:18.653Z,12.83
2019-02-17T14:45:47.537Z,11.83
2019-02-17T14:48:16.400Z,12.83
2019-02-17T14:50:45.284Z,12.80
2019-02-17T14:53:16.062Z,13.13
2019-02-17T14:55:45.060Z,12.93
2019-02-17T14:58:13.976Z,11.23
2019-02-17T15:00:42.850Z,11.50
2019-02-17T15:03:11.708Z,10.70
2019-02-17T15:05:40.886Z,11.67
2019-02-17T15:08:09.941Z,11.40
2019-02-17T15:10:38.881Z,11.70
2019-02-17T15:13:07.861Z,10.93
2019-02-17T15:15:38.203Z,11.80
2019-02-17T15:18:07.024Z,11.30
2019-02-17T15:20:35.987Z,12.77
2019-02-17T15:23:04.893Z,11.13
2019-02-17T15:25:33.938Z,11.57
2019-02-17T15:28:02.764Z,11.60
2019-02-17T15:30:31.764Z,10.87
2019-02-17T15:33:04.149Z,10.40
2019-02-17T15:35:32.600Z,10.10
2019-02-17T15:38:01.458Z,10.00
2019-02-17T15:40:30.323Z,9.43
2019-02-17T15:42:59.425Z,10.23
2019-02-17T15:45:28.236Z,10.10
2019-02-17T15:47:57.304Z,9.70
2019-02-17T15:50:26.148Z,9.43
2019-02-17T15:52:55.351Z,10.30
2019-02-17T15:55:24.166Z,10.57
2019-02-17T15:57:55.828Z,10.10
2019-02-17T16:00:24.592Z,10.33
2019-02-17T16:02:53.817Z,9.23
2019-02-17T16:05:22.655Z,9.80
2019-02-17T16:07:51.558Z,10.07
2019-02-17T16:10:20.600Z,10.17
2019-02-17T16:12:50.204Z,10.73
2019-02-17T16:15:19.203Z,10.43
2019-02-17T16:17:48.202Z,10.50
2019-02-17T16:20:17.675Z,10.17
2019-02-17T16:22:46.909Z,9.27
2019-02-17T16:25:22.248Z,9.80
2019-02-17T16:27:51.317Z,9.80
2019-02-17T16:30:22.944Z,9.83
2019-02-17T16:32:52.028Z,9.50
2019-02-17T16:35:21.147Z,4.90
2019-02-17T16:37:50.239Z,6.80
2019-02-17T16:40:20.613Z,7.73
2019-02-17T16:42:49.562Z,8.57
2019-02-17T16:45:18.969Z,10.47
2019-02-17T16:47:48.128Z,10.23
2019-02-17T16:50:18.382Z,11.27
2019-02-17T16:52:49.165Z,11.97
2019-02-17T16:55:18.060Z,11.93
2019-02-17T16:57:47.470Z,12.30
2019-02-17T17:00:21.983Z,13.23
2019-02-17T17:02:51.594Z,11.87
2019-02-17T17:05:21.272Z,12.97
2019-02-17T17:07:50.591Z,13.27
2019-02-17T17:10:19.949Z,13.87
2019-02-17T17:12:52.058Z,14.00
2019-02-17T17:15:21.131Z,13.57
2019-02-17T17:17:50.073Z,13.53
2019-02-17T17:20:19.168Z,13.27
2019-02-17T17:22:48.233Z,12.97
2019-02-17T17:25:17.245Z,14.33
2019-02-17T17:27:46.108Z,13.43
2019-02-17T17:30:15.095Z,13.67
2019-02-17T17:32:44.068Z,13.20
2019-02-17T17:35:13.583Z,12.93
2019-02-17T17:37:42.676Z,11.97
2019-02-17T17:40:11.769Z,12.77
2019-02-17T17:42:40.851Z,11.57
2019-02-17T17:45:11.426Z,11.70
2019-02-17T17:47:40.623Z,12.10
2019-02-17T17:50:10.766Z,11.77
2019-02-17T17:52:40.005Z,11.80
2019-02-17T17:55:09.478Z,11.70
2019-02-17T17:57:38.645Z,10.63
2019-02-17T18:00:08.476Z,11.77
2019-02-17T18:02:37.349Z,11.47
2019-02-17T18:05:09.131Z,11.30
2019-02-17T18:07:37.564Z,12.43
2019-02-17T18:10:07.064Z,14.10
2019-02-17T18:12:36.102Z,14.77
2019-02-17T18:15:05.285Z,14.13
2019-02-17T18:17:34.545Z,13.30
2019-02-17T18:20:03.848Z,12.50
2019-02-17T18:22:32.864Z,13.20
2019-02-17T18:25:02.135Z,12.47
2019-02-17T18:27:31.271Z,12.47
2019-02-17T18:30:00.351Z,14.60
2019-02-17T18:32:29.563Z,13.13
2019-02-17T18:34:58.833Z,12.87
2019-02-17T18:37:27.885Z,13.23
2019-02-17T18:39:56.976Z,13.23
2019-02-17T18:42:26.066Z,14.03
2019-02-17T18:44:55.119Z,15.50
2019-02-17T18:47:24.413Z,14.30
2019-02-17T18:49:53.527Z,14.10
2019-02-17T18:52:22.798Z,13.60
2019-02-17T18:54:51.983Z,14.37
2019-02-17T18:57:21.431Z,13.83
2019-02-17T18:59:50.413Z,14.30
2019-02-17T19:02:19.851Z,14.47
2019-02-17T19:04:48.973Z,13.67
2019-02-17T19:07:18.049Z,13.80
2019-02-17T19:09:47.164Z,14.27
2019-02-17T19:12:16.017Z,14.43
2019-02-17T19:14:45.395Z,14.00
2019-02-17T19:17:14.726Z,13.77
2019-02-17T19:19:44.155Z,12.87
2019-02-17T19:22:13.211Z,12.80
2019-02-17T19:24:42.187Z,12.90
2019-02-17T19:27:11.559Z,13.37
2019-02-17T19:29:40.894Z,13.67
2019-02-17T19:32:10.036Z,14.30
2019-02-17T19:34:39.877Z,13.87
2019-02-17T19:37:09.104Z,13.97
2019-02-17T19:39:38.087Z,13.30
2019-02-17T19:42:09.444Z,12.83
2019-02-17T19:44:38.600Z,12.97
2019-02-17T19:47:08.456Z,11.97
2019-02-17T19:49:38.010Z,13.83
2019-02-17T19:52:07.658Z,13.20
2019-02-17T19:54:36.938Z,13.23
2019-02-17T19:57:06.213Z,12.30
2019-02-17T19:59:35.666Z,11.07
2019-02-17T20:02:04.935Z,12.17
2019-02-17T20:04:38.407Z,12.17
2019-02-17T20:07:07.399Z,11.47
2019-02-17T20:09:36.669Z,11.00
2019-02-17T20:12:05.860Z,11.30
2019-02-17T20:14:34.957Z,11.73
2019-02-17T20:17:04.131Z,11.47
2019-02-17T20:19:35.162Z,10.77
2019-02-17T20:22:05.380Z,10.87
2019-02-17T20:24:35.430Z,11.40
2019-02-17T20:27:05.343Z,10.60
2019-02-17T20:29:34.688Z,10.70
2019-02-17T20:32:04.608Z,10.03
2019-02-17T20:34:33.528Z,10.50
2019-02-17T20:37:02.617Z,10.63
2019-02-17T20:39:31.656Z,10.47
2019-02-17T20:42:00.862Z,9.87
2019-02-17T20:44:30.533Z,10.63
2019-02-17T20:46:59.627Z,10.77
2019-02-17T20:49:29.849Z,11.27
2019-02-17T20:51:59.605Z,10.13
2019-02-17T20:54:28.688Z,9.50
2019-02-17T20:56:57.585Z,9.60
2019-02-17T20:59:26.964Z,9.47
2019-02-17T21:01:56.634Z,10.32
2019-02-17T21:04:26.642Z,10.10
2019-02-17T21:06:56.678Z,9.77
2019-02-17T21:09:26.386Z,11.03
2019-02-17T21:11:57.482Z,10.87
2019-02-17T21:14:26.946Z,10.73
2019-02-17T21:16:56.993Z,9.93
2019-02-17T21:19:27.123Z,9.80
2019-02-17T21:21:58.253Z,10.72
2019-02-17T21:24:29.416Z,10.80
2019-02-17T21:26:59.412Z,10.40
2019-02-17T21:29:28.922Z,9.80
2019-02-17T21:31:59.815Z,9.67
2019-02-17T21:34:29.060Z,10.00
2019-02-17T21:36:59.030Z,9.13
2019-02-17T21:39:28.835Z,9.67
2019-02-17T21:41:58.751Z,9.20
2019-02-17T21:44:28.057Z,9.80
2019-02-17T21:46:57.232Z,9.60
2019-02-17T21:49:26.818Z,9.87
2019-02-17T21:51:56.828Z,9.30
2019-02-17T21:54:25.998Z,8.43
2019-02-17T21:56:55.575Z,9.00
2019-02-17T21:59:24.835Z,9.00
2019-02-17T22:01:54.018Z,9.27
2019-02-17T22:04:23.235Z,10.13
2019-02-17T22:06:52.528Z,9.13
2019-02-17T22:09:21.418Z,9.57
2019-02-17T22:11:50.476Z,9.73
2019-02-17T22:14:19.824Z,9.03
2019-02-17T22:16:48.812Z,9.67
2019-02-17T22:19:18.418Z,9.67
2019-02-17T22:21:49.059Z,9.37
2019-02-17T22:24:18.331Z,9.27
2019-02-17T22:26:47.181Z,9.50
2019-02-17T22:29:16.006Z,9.03
2019-02-17T22:31:45.154Z,9.03
2019-02-17T22:34:14.228Z,8.90
2019-02-17T22:36:43.991Z,9.10
2019-02-17T22:39:13.122Z,9.33
2019-02-17T22:41:42.081Z,8.93
2019-02-17T22:44:10.939Z,9.53
2019-02-17T22:46:40.145Z,9.17
2019-02-17T22:49:08.967Z,9.17
2019-02-17T22:51:37.997Z,9.20
2019-02-17T22:54:06.944Z,8.57
2019-02-17T22:56:35.747Z,9.43
2019-02-17T22:59:04.574Z,8.73
2019-02-17T23:01:34.493Z,9.27
2019-02-17T23:04:03.386Z,10.27
2019-02-17T23:06:32.218Z,9.67
2019-02-17T23:09:01.547Z,9.43
2019-02-17T23:11:30.627Z,8.80
2019-02-17T23:14:00.238Z,9.80
2019-02-17T23:16:29.127Z,9.10
2019-02-17T23:18:58.079Z,9.43
2019-02-17T23:21:26.889Z,8.40
2019-02-17T23:23:55.689Z,9.00
2019-02-17T23:26:24.547Z,9.13
2019-02-17T23:28:53.496Z,8.50
2019-02-17T23:31:22.328Z,8.77
2019-02-17T23:33:51.668Z,8.57
2019-02-17T23:36:20.915Z,9.07
2019-02-17T23:38:50.028Z,8.87
2019-02-17T23:41:18.845Z,9.60
2019-02-17T23:43:47.718Z,8.60
2019-02-17T23:46:16.728Z,10.80
2019-02-17T23:48:45.671Z,10.40
2019-02-17T23:51:14.774Z,10.87
2019-02-17T23:53:43.613Z,9.80
2019-02-17T23:56:12.459Z,9.03
2019-02-17T23:58:41.359Z,9.80
